createdAt,value
2018-08-14T00:00:14.652Z,17.30
2018-08-14T00:02:42.786Z,17.30
2018-08-14T00:05:10.931Z,17.20
2018-08-14T00:07:39.137Z,17.30
2018-08-14T00:10:08.819Z,17.30
2018-08-14T00:12:36.966Z,17.30
2018-08-14T00:15:08.107Z,17.30
2018-08-14T00:17:36.288Z,17.30
2018-08-14T00:20:06.241Z,17.20
2018-08-14T00:22:34.375Z,17.20
2018-08-14T00:25:02.517Z,17.20
2018-08-14T00:27:30.643Z,17.10
2018-08-14T00:29:58.779Z,17.10
2018-08-14T00:32:26.929Z,17.10
2018-08-14T00:34:56.272Z,17.00
2018-08-14T00:37:25.275Z,17.00
2018-08-14T00:39:54.050Z,16.90
2018-08-14T00:42:23.137Z,16.90
2018-08-14T00:44:51.530Z,16.90
2018-08-14T00:47:20.091Z,16.90
2018-08-14T00:49:48.277Z,16.90
2018-08-14T00:52:16.699Z,16.80
2018-08-14T00:54:44.898Z,16.80
2018-08-14T00:57:13.083Z,16.80
2018-08-14T00:59:41.243Z,16.70
2018-08-14T01:02:09.367Z,16.70
2018-08-14T01:04:37.926Z,16.60
2018-08-14T01:07:06.311Z,16.60
2018-08-14T01:09:34.591Z,16.60
2018-08-14T01:12:02.729Z,16.60
2018-08-14T01:14:30.870Z,16.60
2018-08-14T01:16:59.004Z,16.60
2018-08-14T01:19:27.212Z,16.60
2018-08-14T01:21:55.327Z,16.50
2018-08-14T01:24:23.840Z,16.50
2018-08-14T01:26:51.970Z,16.50
2018-08-14T01:29:20.142Z,16.50
2018-08-14T01:31:49.687Z,16.50
2018-08-14T01:34:17.860Z,16.50
2018-08-14T01:36:46.010Z,16.50
2018-08-14T01:39:14.393Z,16.50
2018-08-14T01:41:42.550Z,16.50
2018-08-14T01:44:11.346Z,16.60
2018-08-14T01:46:40.062Z,16.70
2018-08-14T01:49:08.917Z,16.70
2018-08-14T01:51:37.083Z,16.70
2018-08-14T01:54:05.383Z,16.80
2018-08-14T01:56:33.622Z,16.80
2018-08-14T01:59:01.785Z,16.80
2018-08-14T02:01:30.070Z,16.90
2018-08-14T02:03:58.474Z,16.90
2018-08-14T02:06:26.616Z,16.90
2018-08-14T02:08:54.755Z,17.00
2018-08-14T02:11:22.896Z,17.00
2018-08-14T02:13:51.056Z,17.10
2018-08-14T02:16:19.203Z,17.10
2018-08-14T02:18:47.350Z,17.10
2018-08-14T02:21:15.479Z,17.00
2018-08-14T02:23:43.634Z,17.00
2018-08-14T02:26:11.783Z,17.00
2018-08-14T02:28:40.211Z,17.00
2018-08-14T02:31:08.358Z,17.00
2018-08-14T02:33:36.498Z,16.90
2018-08-14T02:36:04.660Z,16.90
2018-08-14T02:38:32.816Z,16.90
2018-08-14T02:41:00.972Z,16.90
2018-08-14T02:43:29.103Z,16.90
2018-08-14T02:45:57.243Z,16.90
2018-08-14T02:48:25.383Z,16.80
2018-08-14T02:50:53.532Z,16.80
2018-08-14T02:53:21.754Z,16.80
2018-08-14T02:55:49.912Z,16.80
2018-08-14T02:58:18.048Z,16.70
2018-08-14T03:00:46.194Z,16.70
2018-08-14T03:03:14.343Z,16.70
2018-08-14T03:05:42.483Z,16.70
2018-08-14T03:08:10.620Z,16.70
2018-08-14T03:10:38.781Z,16.70
2018-08-14T03:13:06.913Z,16.60
2018-08-14T03:15:35.055Z,16.60
2018-08-14T03:18:03.200Z,16.60
2018-08-14T03:20:31.754Z,16.60
2018-08-14T03:22:59.888Z,16.60
2018-08-14T03:25:28.181Z,16.50
2018-08-14T03:27:56.380Z,16.50
2018-08-14T03:30:24.518Z,16.50
2018-08-14T03:32:52.662Z,16.50
2018-08-14T03:35:20.811Z,16.60
2018-08-14T03:37:48.935Z,16.60
2018-08-14T03:40:18.311Z,16.70
2018-08-14T03:42:47.391Z,16.70
2018-08-14T03:45:15.548Z,16.70
2018-08-14T03:47:44.041Z,16.80
2018-08-14T03:50:12.933Z,16.80
2018-08-14T03:52:41.563Z,16.80
2018-08-14T03:55:11.660Z,16.90
2018-08-14T03:57:40.218Z,16.90
2018-08-14T04:00:10.386Z,16.90
2018-08-14T04:02:38.805Z,16.90
2018-08-14T04:05:07.043Z,16.80
2018-08-14T04:07:35.299Z,16.80
2018-08-14T04:10:03.510Z,16.70
2018-08-14T04:12:31.655Z,16.70
2018-08-14T04:14:59.804Z,16.70
2018-08-14T04:17:27.998Z,16.60
2018-08-14T04:19:56.148Z,16.60
2018-08-14T04:22:24.282Z,16.70
2018-08-14T04:24:52.474Z,16.70
2018-08-14T04:27:20.610Z,16.70
2018-08-14T04:29:48.763Z,16.70
2018-08-14T04:32:16.915Z,16.80
2018-08-14T04:34:45.047Z,16.80
2018-08-14T04:37:13.185Z,16.80
2018-08-14T04:39:41.837Z,16.80
2018-08-14T04:42:10.013Z,16.90
2018-08-14T04:44:38.147Z,16.90
2018-08-14T04:47:06.308Z,16.90
2018-08-14T04:49:34.435Z,16.90
2018-08-14T04:52:02.585Z,17.00
2018-08-14T04:54:30.722Z,16.90
2018-08-14T04:56:58.867Z,17.00
2018-08-14T04:59:26.994Z,17.00
2018-08-14T05:01:55.258Z,17.00
2018-08-14T05:04:23.418Z,17.10
2018-08-14T05:06:51.593Z,17.10
2018-08-14T05:09:19.717Z,17.10
2018-08-14T05:11:48.277Z,17.10
2018-08-14T05:14:16.414Z,17.10
2018-08-14T05:16:44.566Z,17.20
2018-08-14T05:19:12.698Z,17.20
2018-08-14T05:21:40.834Z,17.20
2018-08-14T05:24:09.007Z,17.20
2018-08-14T05:26:37.151Z,17.30
2018-08-14T05:29:05.290Z,17.30
2018-08-14T05:31:33.438Z,17.40
2018-08-14T05:34:01.585Z,17.50
2018-08-14T05:36:29.846Z,17.60
2018-08-14T05:38:57.986Z,17.80
2018-08-14T05:41:26.141Z,17.90
2018-08-14T05:43:54.267Z,17.90
2018-08-14T05:46:22.427Z,17.90
2018-08-14T05:48:50.564Z,17.90
2018-08-14T05:51:18.700Z,18.00
2018-08-14T05:53:46.843Z,18.00
2018-08-14T05:56:14.986Z,18.10
2018-08-14T05:58:43.146Z,18.20
2018-08-14T06:01:11.294Z,18.20
2018-08-14T06:03:39.431Z,18.30
2018-08-14T06:06:07.606Z,18.20
2018-08-14T06:08:35.742Z,18.20
2018-08-14T06:11:03.932Z,18.20
2018-08-14T06:13:32.096Z,18.30
2018-08-14T06:16:00.230Z,18.30
2018-08-14T06:18:28.412Z,18.40
2018-08-14T06:20:56.547Z,18.50
2018-08-14T06:23:24.702Z,18.60
2018-08-14T06:25:52.886Z,18.60
2018-08-14T06:28:21.040Z,18.60
2018-08-14T06:30:49.166Z,18.60
2018-08-14T06:33:17.637Z,18.60
2018-08-14T06:35:45.774Z,18.60
2018-08-14T06:38:13.923Z,18.50
2018-08-14T06:40:42.066Z,18.60
2018-08-14T06:43:10.211Z,18.60
2018-08-14T06:45:38.346Z,18.60
2018-08-14T06:48:06.878Z,18.60
2018-08-14T06:50:35.031Z,18.60
2018-08-14T06:53:03.179Z,18.60
2018-08-14T06:55:31.319Z,18.60
2018-08-14T06:57:59.461Z,18.60
2018-08-14T07:00:27.598Z,18.60
2018-08-14T07:02:55.753Z,18.70
2018-08-14T07:05:23.880Z,18.70
2018-08-14T07:07:52.030Z,18.60
2018-08-14T07:10:20.186Z,18.60
2018-08-14T07:12:48.331Z,18.50
2018-08-14T07:15:19.307Z,18.50
2018-08-14T07:17:47.619Z,18.50
2018-08-14T07:20:15.916Z,18.50
2018-08-14T07:22:44.762Z,18.60
2018-08-14T07:25:14.011Z,18.70
2018-08-14T07:27:42.257Z,18.60
2018-08-14T07:30:15.259Z,18.60
2018-08-14T07:32:43.574Z,18.70
2018-08-14T07:35:11.930Z,18.70
2018-08-14T07:37:40.659Z,18.70
2018-08-14T07:40:08.826Z,18.70
2018-08-14T07:42:37.031Z,18.70
2018-08-14T07:45:06.888Z,18.90
2018-08-14T07:47:35.053Z,19.00
2018-08-14T07:50:03.270Z,19.10
2018-08-14T07:52:31.526Z,19.20
2018-08-14T07:54:59.858Z,19.30
2018-08-14T07:57:28.195Z,19.40
2018-08-14T07:59:56.339Z,19.50
2018-08-14T08:02:24.633Z,19.90
2018-08-14T08:04:52.794Z,19.90
2018-08-14T08:07:20.926Z,19.90
2018-08-14T08:09:49.082Z,19.80
2018-08-14T08:12:17.274Z,19.80
2018-08-14T08:14:45.355Z,19.90
2018-08-14T08:17:13.824Z,19.90
2018-08-14T08:19:41.976Z,20.00
2018-08-14T08:22:10.114Z,20.20
2018-08-14T08:24:38.358Z,20.30
2018-08-14T08:27:06.804Z,20.30
2018-08-14T08:29:35.097Z,20.30
2018-08-14T08:32:03.421Z,20.20
2018-08-14T08:34:31.614Z,20.10
2018-08-14T08:36:59.738Z,19.90
2018-08-14T08:39:27.980Z,19.50
2018-08-14T08:41:56.363Z,19.30
2018-08-14T08:44:24.490Z,19.10
2018-08-14T08:46:52.743Z,19.10
2018-08-14T08:49:20.886Z,19.20
2018-08-14T08:51:49.049Z,19.40
2018-08-14T08:54:17.195Z,19.50
2018-08-14T08:56:45.324Z,19.70
2018-08-14T08:59:13.463Z,19.80
2018-08-14T09:01:41.607Z,19.70
2018-08-14T09:04:09.779Z,19.50
2018-08-14T09:06:37.979Z,19.30
2018-08-14T09:09:08.850Z,19.40
2018-08-14T09:11:37.056Z,19.50
2018-08-14T09:14:05.183Z,19.70
2018-08-14T09:16:33.318Z,20.00
2018-08-14T09:19:01.504Z,20.20
2018-08-14T09:21:29.665Z,20.30
2018-08-14T09:23:57.835Z,20.20
2018-08-14T09:26:26.091Z,20.40
2018-08-14T09:28:54.438Z,20.60
2018-08-14T09:31:22.594Z,20.60
2018-08-14T09:33:50.740Z,20.50
2018-08-14T09:36:18.868Z,20.70
2018-08-14T09:38:46.994Z,21.00
2018-08-14T09:41:15.142Z,21.40
2018-08-14T09:43:43.283Z,21.40
2018-08-14T09:46:11.436Z,20.90
2018-08-14T09:48:39.666Z,20.70
2018-08-14T09:51:07.806Z,20.60
2018-08-14T09:53:36.051Z,20.40
2018-08-14T09:56:04.182Z,20.30
2018-08-14T09:58:32.331Z,20.40
2018-08-14T10:01:02.511Z,20.40
2018-08-14T10:03:33.552Z,20.50
2018-08-14T10:06:07.295Z,20.80
2018-08-14T10:08:36.080Z,20.90
2018-08-14T10:11:04.779Z,21.20
2018-08-14T10:13:33.395Z,21.50
2018-08-14T10:16:01.531Z,21.50
2018-08-14T10:18:29.651Z,22.00
2018-08-14T10:20:57.831Z,22.40
2018-08-14T10:23:27.843Z,23.00
2018-08-14T10:25:56.012Z,23.10
2018-08-14T10:28:24.875Z,23.30
2018-08-14T10:30:53.196Z,23.70
2018-08-14T10:33:21.354Z,23.80
2018-08-14T10:35:49.519Z,24.00
2018-08-14T10:38:17.657Z,23.90
2018-08-14T10:40:45.807Z,23.40
2018-08-14T10:43:14.010Z,23.40
2018-08-14T10:45:42.179Z,24.00
2018-08-14T10:48:10.320Z,23.90
2018-08-14T10:50:38.500Z,23.60
2018-08-14T10:53:06.662Z,23.00
2018-08-14T10:55:34.836Z,22.80
2018-08-14T10:58:02.974Z,22.70
2018-08-14T11:00:31.334Z,22.70
2018-08-14T11:03:00.142Z,22.40
2018-08-14T11:05:28.280Z,22.20
2018-08-14T11:07:56.482Z,22.10
2018-08-14T11:10:26.971Z,22.00
2018-08-14T11:12:55.794Z,22.10
2018-08-14T11:15:23.957Z,22.20
2018-08-14T11:17:52.096Z,22.10
2018-08-14T11:20:21.736Z,21.70
2018-08-14T11:22:50.334Z,21.00
2018-08-14T11:25:18.700Z,20.40
2018-08-14T11:27:46.835Z,20.10
2018-08-14T11:30:23.906Z,20.10
2018-08-14T11:32:52.342Z,20.20
2018-08-14T11:35:21.407Z,20.50
2018-08-14T11:37:49.587Z,20.90
2018-08-14T11:40:17.950Z,21.00
2018-08-14T11:42:46.132Z,21.20
2018-08-14T11:45:16.932Z,21.10
2018-08-14T11:47:45.871Z,21.20
2018-08-14T11:50:15.463Z,21.10
2018-08-14T11:52:44.778Z,21.10
2018-08-14T11:55:13.258Z,21.40
2018-08-14T11:57:41.411Z,21.60
2018-08-14T12:00:12.632Z,21.40
2018-08-14T12:02:43.414Z,20.90
2018-08-14T12:05:11.544Z,20.40
2018-08-14T12:07:41.087Z,20.10
2018-08-14T12:10:10.227Z,19.80
2018-08-14T12:12:38.759Z,19.60
2018-08-14T12:15:08.049Z,19.50
2018-08-14T12:17:36.192Z,19.40
2018-08-14T12:20:05.676Z,19.10
2018-08-14T12:22:33.848Z,18.90
2018-08-14T12:25:02.007Z,18.80
2018-08-14T12:27:30.151Z,18.70
2018-08-14T12:29:58.281Z,18.70
2018-08-14T12:32:26.431Z,18.70
2018-08-14T12:34:54.676Z,18.60
2018-08-14T12:37:22.762Z,18.70
2018-08-14T12:39:51.211Z,18.70
2018-08-14T12:42:19.355Z,18.80
2018-08-14T12:44:51.762Z,18.80
2018-08-14T12:47:19.895Z,18.80
2018-08-14T12:49:48.051Z,18.90
2018-08-14T12:52:16.188Z,19.00
2018-08-14T12:54:44.431Z,19.00
2018-08-14T12:57:12.559Z,19.00
2018-08-14T12:59:41.089Z,19.00
2018-08-14T13:02:09.247Z,18.90
2018-08-14T13:04:38.372Z,19.00
2018-08-14T13:07:06.550Z,19.10
2018-08-14T13:09:34.699Z,19.10
2018-08-14T13:12:02.857Z,19.10
2018-08-14T13:14:30.994Z,19.10
2018-08-14T13:16:59.251Z,19.10
2018-08-14T13:19:27.383Z,19.20
2018-08-14T13:21:55.603Z,19.30
2018-08-14T13:24:23.760Z,19.50
2018-08-14T13:26:51.937Z,19.60
2018-08-14T13:29:20.096Z,19.80
2018-08-14T13:31:48.214Z,20.00
2018-08-14T13:34:16.392Z,20.20
2018-08-14T13:36:44.530Z,20.20
2018-08-14T13:39:12.671Z,20.50
2018-08-14T13:41:40.807Z,20.90
2018-08-14T13:44:08.960Z,21.30
2018-08-14T13:46:43.694Z,21.60
2018-08-14T13:49:11.852Z,21.50
2018-08-14T13:51:39.986Z,21.50
2018-08-14T13:54:08.362Z,21.60
2018-08-14T13:56:36.494Z,21.80
2018-08-14T13:59:04.657Z,21.90
2018-08-14T14:01:32.808Z,22.10
2018-08-14T14:04:00.946Z,22.50
2018-08-14T14:06:29.088Z,22.30
2018-08-14T14:08:57.302Z,22.00
2018-08-14T14:11:25.422Z,22.00
2018-08-14T14:13:53.555Z,21.60
2018-08-14T14:16:21.787Z,21.60
2018-08-14T14:18:49.938Z,21.50
2018-08-14T14:21:18.079Z,21.40
2018-08-14T14:23:46.215Z,21.30
2018-08-14T14:26:14.360Z,21.20
2018-08-14T14:28:42.494Z,21.30
2018-08-14T14:31:10.635Z,21.20
2018-08-14T14:33:38.994Z,21.20
2018-08-14T14:36:07.124Z,21.20
2018-08-14T14:38:35.244Z,21.30
2018-08-14T14:41:03.401Z,21.50
2018-08-14T14:43:31.544Z,22.20
2018-08-14T14:45:59.700Z,22.70
2018-08-14T14:48:27.831Z,22.90
2018-08-14T14:50:55.991Z,23.20
2018-08-14T14:53:24.147Z,23.20
2018-08-14T14:55:52.386Z,23.20
2018-08-14T14:58:20.523Z,23.30
2018-08-14T15:00:48.659Z,23.30
2018-08-14T15:03:16.814Z,23.20
2018-08-14T15:05:45.015Z,23.50
2018-08-14T15:08:13.200Z,23.40
2018-08-14T15:10:41.327Z,23.30
2018-08-14T15:13:09.624Z,23.30
2018-08-14T15:15:37.787Z,23.20
2018-08-14T15:18:06.202Z,23.00
2018-08-14T15:20:34.343Z,22.80
2018-08-14T15:23:02.458Z,22.50
2018-08-14T15:25:31.006Z,22.80
2018-08-14T15:29:09.918Z,23.00
2018-08-14T15:31:42.631Z,22.90
2018-08-14T15:34:12.854Z,22.70
2018-08-14T15:36:41.715Z,22.50
2018-08-14T15:39:11.139Z,22.30
2018-08-14T15:41:39.553Z,22.30
2018-08-14T15:44:09.931Z,22.60
2018-08-14T15:46:38.107Z,22.60
2018-08-14T15:49:06.762Z,22.40
2018-08-14T15:51:34.934Z,22.30
2018-08-14T15:54:03.073Z,22.20
2018-08-14T15:56:31.277Z,22.20
2018-08-14T15:58:59.515Z,22.20
2018-08-14T16:01:29.162Z,22.20
2018-08-14T16:03:57.546Z,22.20
2018-08-14T16:06:25.790Z,22.30
2018-08-14T16:08:54.008Z,22.40
2018-08-14T16:11:22.172Z,22.40
2018-08-14T16:13:50.314Z,22.40
2018-08-14T16:16:18.461Z,22.40
2018-08-14T16:18:46.602Z,22.80
2018-08-14T16:21:14.737Z,23.10
2018-08-14T16:23:43.615Z,23.30
2018-08-14T16:26:13.383Z,23.10
2018-08-14T16:28:41.650Z,22.90
2018-08-14T16:31:09.980Z,22.90
2018-08-14T16:33:38.119Z,22.80
2018-08-14T16:36:06.639Z,22.80
2018-08-14T16:38:35.015Z,22.90
2018-08-14T16:41:04.311Z,22.80
2018-08-14T16:43:32.489Z,22.80
2018-08-14T16:46:00.616Z,22.80
2018-08-14T16:48:35.461Z,22.70
2018-08-14T16:51:03.608Z,22.60
2018-08-14T16:53:31.734Z,22.30
2018-08-14T16:56:01.182Z,22.30
2018-08-14T16:58:29.398Z,22.30
2018-08-14T17:00:57.654Z,22.10
2018-08-14T17:03:25.781Z,22.10
2018-08-14T17:05:56.047Z,22.00
2018-08-14T17:08:24.867Z,22.10
2018-08-14T17:10:53.074Z,22.10
2018-08-14T17:13:21.496Z,22.20
2018-08-14T17:15:49.663Z,22.30
2018-08-14T17:18:18.071Z,22.30
2018-08-14T17:20:45.668Z,22.20
2018-08-14T17:23:13.756Z,22.00
2018-08-14T17:25:41.951Z,21.70
2018-08-14T17:28:10.105Z,21.60
2018-08-14T17:30:38.274Z,21.60
2018-08-14T17:33:06.407Z,21.50
2018-08-14T17:35:34.559Z,21.50
2018-08-14T17:38:02.805Z,21.30
2018-08-14T17:40:30.930Z,21.30
2018-08-14T17:42:59.090Z,21.20
2018-08-14T17:45:30.740Z,21.10
2018-08-14T17:48:01.315Z,21.00
2018-08-14T17:50:30.200Z,20.90
2018-08-14T17:52:58.396Z,20.90
2018-08-14T17:55:27.309Z,20.90
2018-08-14T17:57:55.515Z,20.90
2018-08-14T18:00:26.738Z,20.90
2018-08-14T18:02:56.486Z,20.90
2018-08-14T18:05:24.683Z,20.80
2018-08-14T18:07:52.863Z,20.70
2018-08-14T18:10:22.012Z,20.70
2018-08-14T18:12:50.270Z,20.60
2018-08-14T18:15:18.998Z,20.60
2018-08-14T18:17:47.176Z,20.50
2018-08-14T18:20:16.750Z,20.40
2018-08-14T18:22:44.908Z,20.40
2018-08-14T18:25:14.730Z,20.30
2018-08-14T18:27:43.418Z,20.30
2018-08-14T18:30:12.919Z,20.30
2018-08-14T18:32:41.057Z,20.30
2018-08-14T18:35:09.605Z,20.30
2018-08-14T18:37:38.474Z,20.30
2018-08-14T18:40:09.075Z,20.20
2018-08-14T18:42:37.383Z,20.20
2018-08-14T18:45:07.306Z,20.20
2018-08-14T18:47:35.727Z,20.10
2018-08-14T18:50:04.735Z,20.00
2018-08-14T18:52:32.994Z,20.00
2018-08-14T18:55:01.315Z,20.00
2018-08-14T18:57:29.481Z,19.90
2018-08-14T18:59:57.628Z,19.90
2018-08-14T19:02:25.775Z,19.80
2018-08-14T19:04:53.998Z,19.80
2018-08-14T19:07:22.059Z,19.70
2018-08-14T19:09:50.178Z,19.70
2018-08-14T19:12:18.325Z,19.60
2018-08-14T19:14:46.736Z,19.60
2018-08-14T19:17:14.854Z,19.60
2018-08-14T19:19:42.984Z,19.50
2018-08-14T19:22:11.127Z,19.50
2018-08-14T19:24:39.283Z,19.40
2018-08-14T19:27:07.538Z,19.40
2018-08-14T19:29:35.750Z,19.30
2018-08-14T19:32:03.868Z,19.30
2018-08-14T19:34:32.732Z,19.20
2018-08-14T19:37:00.895Z,19.20
2018-08-14T19:39:29.119Z,19.20
2018-08-14T19:41:57.279Z,19.10
2018-08-14T19:44:25.422Z,19.10
2018-08-14T19:46:53.559Z,19.10
2018-08-14T19:49:21.683Z,19.00
2018-08-14T19:51:49.842Z,19.00
2018-08-14T19:54:17.984Z,18.90
2018-08-14T19:56:46.111Z,18.80
2018-08-14T19:59:14.250Z,18.80
2018-08-14T20:01:42.449Z,18.80
2018-08-14T20:04:10.583Z,18.70
2018-08-14T20:06:38.706Z,18.60
2018-08-14T20:09:08.522Z,18.60
2018-08-14T20:11:36.665Z,18.60
2018-08-14T20:14:05.128Z,18.60
2018-08-14T20:16:33.255Z,18.60
2018-08-14T20:19:01.405Z,18.60
2018-08-14T20:21:29.523Z,18.60
2018-08-14T20:23:57.655Z,18.50
2018-08-14T20:26:25.802Z,18.50
2018-08-14T20:28:53.943Z,18.40
2018-08-14T20:31:22.059Z,18.40
2018-08-14T20:33:50.219Z,18.40
2018-08-14T20:36:18.358Z,18.30
2018-08-14T20:38:46.502Z,18.30
2018-08-14T20:41:15.051Z,18.30
2018-08-14T20:43:43.207Z,18.30
2018-08-14T20:46:11.355Z,18.20
2018-08-14T20:48:39.507Z,18.20
2018-08-14T20:51:07.990Z,18.20
2018-08-14T20:53:36.128Z,18.20
2018-08-14T20:56:04.266Z,18.10
2018-08-14T20:58:32.419Z,18.10
2018-08-14T21:01:00.570Z,18.10
2018-08-14T21:03:28.707Z,18.00
2018-08-14T21:05:56.871Z,18.00
2018-08-14T21:08:25.050Z,18.00
2018-08-14T21:10:53.214Z,17.90
2018-08-14T21:13:21.347Z,17.90
2018-08-14T21:15:54.903Z,17.90
2018-08-14T21:18:23.024Z,17.90
2018-08-14T21:20:51.155Z,17.90
2018-08-14T21:23:19.286Z,17.80
2018-08-14T21:25:47.454Z,17.80
2018-08-14T21:28:15.586Z,17.70
2018-08-14T21:30:43.818Z,17.70
2018-08-14T21:33:11.950Z,17.60
2018-08-14T21:35:40.123Z,17.50
2018-08-14T21:38:08.255Z,17.50
2018-08-14T21:40:36.378Z,17.40
2018-08-14T21:43:04.855Z,17.40
2018-08-14T21:45:32.979Z,17.30
2018-08-14T21:48:01.159Z,17.30
2018-08-14T21:50:29.284Z,17.30
2018-08-14T21:52:57.426Z,17.20
2018-08-14T21:55:25.563Z,17.20
2018-08-14T21:57:53.727Z,17.10
2018-08-14T22:00:29.979Z,17.00
2018-08-14T22:02:58.115Z,17.00
2018-08-14T22:05:26.256Z,17.00
2018-08-14T22:07:54.380Z,17.10
2018-08-14T22:10:22.524Z,17.00
2018-08-14T22:12:50.694Z,17.00
2018-08-14T22:15:18.870Z,17.00
2018-08-14T22:17:47.288Z,17.00
2018-08-14T22:20:16.280Z,17.00
2018-08-14T22:22:44.666Z,17.00
2018-08-14T22:25:12.899Z,17.00
2018-08-14T22:27:41.037Z,17.10
2018-08-14T22:30:11.711Z,17.00
2018-08-14T22:32:39.999Z,17.10
2018-08-14T22:35:08.199Z,17.10
2018-08-14T22:37:36.584Z,17.10
2018-08-14T22:40:05.058Z,17.10
2018-08-14T22:42:33.186Z,17.10
2018-08-14T22:45:01.383Z,17.20
2018-08-14T22:47:29.519Z,17.20
2018-08-14T22:49:57.757Z,17.20
2018-08-14T22:52:25.882Z,17.20
2018-08-14T22:54:54.024Z,17.20
2018-08-14T22:57:22.155Z,17.20
2018-08-14T22:59:50.299Z,17.30
2018-08-14T23:02:18.899Z,17.20
2018-08-14T23:04:47.027Z,17.20
2018-08-14T23:07:15.155Z,17.20
2018-08-14T23:09:43.266Z,17.20
2018-08-14T23:12:11.579Z,17.20
2018-08-14T23:14:39.728Z,17.20
2018-08-14T23:17:07.873Z,17.20
2018-08-14T23:19:36.004Z,17.20
2018-08-14T23:22:04.155Z,17.20
2018-08-14T23:24:32.305Z,17.20
2018-08-14T23:27:00.435Z,17.20
2018-08-14T23:29:28.723Z,17.20
2018-08-14T23:31:56.863Z,17.20
2018-08-14T23:34:24.990Z,17.20
2018-08-14T23:36:53.142Z,17.20
2018-08-14T23:39:21.323Z,17.20
2018-08-14T23:41:49.411Z,17.20
2018-08-14T23:44:17.536Z,17.20
2018-08-14T23:46:45.674Z,17.20
2018-08-14T23:49:13.793Z,17.10
2018-08-14T23:51:41.927Z,17.10
2018-08-14T23:54:10.073Z,17.10
2018-08-14T23:56:38.227Z,17.10
2018-08-14T23:59:06.338Z,17.00
